Feng-yuan, Taiwan
Current Conditions -  °F | °C
As of 4:41 AM on Friday 28 Nov 2014 (Local Time) from RCMQ Reporting Station
Moderate Fog Moderate Fog  
Wind Chill: 70°   Ceiling: 200
Heat Index: 70°   Visibility: 6mi
Dew Point: 68°   Wind: 3mph
Humidity: 94%   Direction: 50°NE
Pressure: 29.97"   Gusts: NA
Location:  24.25°N, 120.72°E
Report Text: RCMQ 272041Z 05003KT 800 R36/0800 FG VV002 21/20 Q1015 RMK A2998
Loading
Personal Weather Stations






























Interactive Weather Map New forecast layout! Learn more

10-Day Weather Forecast

Advertisements
Track Severe Weather on mobile